首页
METAR-TAF:

METAR-TAF

机场 :

乃磨機場

纳奈莫, 不列颠哥伦比亚, 加拿大

纬度: 49-03N, 经度: 123-52W, 海拔: 28米

当前天气观测

该预报发布于55分钟前的13:00 UTC
风速6节,风向西北
温度 18°C
湿度 56%
气压 1014 hPa
能見度: 48.3公里
散云层高于24000英尺

METAR: CYCD 211300Z 31006KT 30SM SCT240 18/09 A2993 RMK CI3 SLP136 DENSITY ALT 500FT

时间: 06:55 (13:55 UTC)

预报

该预报发布于14小时和17分钟前的23:38 UTC
预报有效从21日的 00点(UTC)到 21日的 04点(UTC)
风速8节,风向
能見度: 10公里
散云层高于24000英尺

TAF: CYCD 202338Z 2100/2104 01008KT P6SM SCT240 RMK NXT FCST WILL BE ISSUED AT 211445Z

超过4000个机场的气象观测和天气预报(METAR&TAF报告)。

可查询的气象台以黄色和红色小点在地图上表示。

将鼠标移到小点上方,可查看气象台名称。

然后点击查看天气观测和预报。

如需切换地图:点击带黑十字的绿色按钮放大地图;点击带横线的绿色按钮缩小地图;或者点击绿色箭头查看邻近地区的地图。


METAR-TAF: